sensor_id;sensor_type;location;lat;lon;timestamp;P1;durP1;ratioP1;P2;durP2;ratioP2
60076;SDS011;45950;45.208;20.374;2022-08-21T00:02:13;14.65;;;11.18;;
60076;SDS011;45950;45.208;20.374;2022-08-21T00:04:40;15.65;;;11.77;;
60076;SDS011;45950;45.208;20.374;2022-08-21T00:07:06;17.67;;;12.30;;
60076;SDS011;45950;45.208;20.374;2022-08-21T00:09:33;17.00;;;11.98;;
60076;SDS011;45950;45.208;20.374;2022-08-21T00:12:00;19.75;;;11.35;;
60076;SDS011;45950;45.208;20.374;2022-08-21T00:14:28;14.25;;;11.07;;
60076;SDS011;45950;45.208;20.374;2022-08-21T00:16:55;16.80;;;10.93;;
60076;SDS011;45950;45.208;20.374;2022-08-21T00:19:21;20.00;;;12.65;;
60076;SDS011;45950;45.208;20.374;2022-08-21T00:21:50;21.85;;;16.35;;
60076;SDS011;45950;45.208;20.374;2022-08-21T00:24:17;19.42;;;15.57;;
60076;SDS011;45950;45.208;20.374;2022-08-21T00:26:43;17.63;;;12.05;;
60076;SDS011;45950;45.208;20.374;2022-08-21T00:29:10;19.80;;;12.77;;
60076;SDS011;45950;45.208;20.374;2022-08-21T00:31:38;17.58;;;11.32;;
60076;SDS011;45950;45.208;20.374;2022-08-21T00:34:05;14.95;;;10.82;;
60076;SDS011;45950;45.208;20.374;2022-08-21T00:36:33;15.50;;;12.13;;
60076;SDS011;45950;45.208;20.374;2022-08-21T00:39:00;21.63;;;16.52;;
60076;SDS011;45950;45.208;20.374;2022-08-21T00:41:27;18.83;;;14.50;;
60076;SDS011;45950;45.208;20.374;2022-08-21T00:43:54;17.90;;;14.05;;
60076;SDS011;45950;45.208;20.374;2022-08-21T00:46:21;16.23;;;12.10;;
60076;SDS011;45950;45.208;20.374;2022-08-21T00:48:49;20.30;;;12.88;;
60076;SDS011;45950;45.208;20.374;2022-08-21T00:51:17;16.77;;;12.00;;
60076;SDS011;45950;45.208;20.374;2022-08-21T00:53:48;18.77;;;14.05;;
60076;SDS011;45950;45.208;20.374;2022-08-21T00:56:17;20.27;;;13.95;;
60076;SDS011;45950;45.208;20.374;2022-08-21T00:58:43;19.80;;;14.05;;
60076;SDS011;45950;45.208;20.374;2022-08-21T01:01:11;15.40;;;10.98;;
60076;SDS011;45950;45.208;20.374;2022-08-21T01:03:38;18.17;;;12.93;;
60076;SDS011;45950;45.208;20.374;2022-08-21T01:06:06;20.30;;;14.55;;
60076;SDS011;45950;45.208;20.374;2022-08-21T01:08:33;22.73;;;16.75;;
60076;SDS011;45950;45.208;20.374;2022-08-21T01:11:01;19.90;;;15.55;;
60076;SDS011;45950;45.208;20.374;2022-08-21T01:13:28;21.45;;;17.15;;
60076;SDS011;45950;45.208;20.374;2022-08-21T01:15:56;20.45;;;16.35;;
60076;SDS011;45950;45.208;20.374;2022-08-21T01:18:24;21.88;;;17.98;;
60076;SDS011;45950;45.208;20.374;2022-08-21T01:20:59;19.42;;;16.27;;
60076;SDS011;45950;45.208;20.374;2022-08-21T01:23:26;17.63;;;12.65;;
60076;SDS011;45950;45.208;20.374;2022-08-21T01:25:53;17.27;;;10.88;;
60076;SDS011;45950;45.208;20.374;2022-08-21T01:28:20;17.27;;;14.93;;
60076;SDS011;45950;45.208;20.374;2022-08-21T01:30:47;21.08;;;16.60;;
60076;SDS011;45950;45.208;20.374;2022-08-21T01:33:14;17.95;;;14.88;;
60076;SDS011;45950;45.208;20.374;2022-08-21T01:35:41;16.92;;;15.02;;
60076;SDS011;45950;45.208;20.374;2022-08-21T01:38:09;14.68;;;11.27;;
60076;SDS011;45950;45.208;20.374;2022-08-21T01:40:37;15.40;;;11.13;;
60076;SDS011;45950;45.208;20.374;2022-08-21T01:43:04;14.38;;;10.88;;
60076;SDS011;45950;45.208;20.374;2022-08-21T01:45:30;17.33;;;12.60;;
60076;SDS011;45950;45.208;20.374;2022-08-21T01:47:57;17.75;;;12.10;;
60076;SDS011;45950;45.208;20.374;2022-08-21T01:50:24;15.15;;;11.13;;
60076;SDS011;45950;45.208;20.374;2022-08-21T01:52:50;15.63;;;11.55;;
60076;SDS011;45950;45.208;20.374;2022-08-21T01:55:19;14.15;;;10.40;;
60076;SDS011;45950;45.208;20.374;2022-08-21T01:57:46;13.73;;;10.15;;
60076;SDS011;45950;45.208;20.374;2022-08-21T02:00:13;14.73;;;9.95;;
60076;SDS011;45950;45.208;20.374;2022-08-21T02:02:40;15.57;;;9.93;;
60076;SDS011;45950;45.208;20.374;2022-08-21T02:05:07;19.98;;;16.05;;
60076;SDS011;45950;45.208;20.374;2022-08-21T02:07:35;17.10;;;13.13;;
60076;SDS011;45950;45.208;20.374;2022-08-21T02:10:03;18.60;;;14.63;;
60076;SDS011;45950;45.208;20.374;2022-08-21T02:12:32;21.83;;;16.08;;
60076;SDS011;45950;45.208;20.374;2022-08-21T02:14:59;20.77;;;16.95;;
60076;SDS011;45950;45.208;20.374;2022-08-21T02:17:25;21.27;;;17.85;;
60076;SDS011;45950;45.208;20.374;2022-08-21T02:19:52;20.38;;;13.82;;
60076;SDS011;45950;45.208;20.374;2022-08-21T02:22:19;23.10;;;17.23;;
60076;SDS011;45950;45.208;20.374;2022-08-21T02:24:45;23.13;;;17.15;;
60076;SDS011;45950;45.208;20.374;2022-08-21T02:27:12;20.30;;;15.70;;
60076;SDS011;45950;45.208;20.374;2022-08-21T02:29:40;24.13;;;18.73;;
60076;SDS011;45950;45.208;20.374;2022-08-21T02:32:07;23.73;;;18.45;;
60076;SDS011;45950;45.208;20.374;2022-08-21T02:34:34;25.90;;;21.13;;
60076;SDS011;45950;45.208;20.374;2022-08-21T02:37:00;32.72;;;27.45;;
60076;SDS011;45950;45.208;20.374;2022-08-21T02:39:27;32.08;;;25.88;;
60076;SDS011;45950;45.208;20.374;2022-08-21T02:41:54;33.53;;;28.52;;
60076;SDS011;45950;45.208;20.374;2022-08-21T02:44:20;32.83;;;27.30;;
60076;SDS011;45950;45.208;20.374;2022-08-21T02:46:48;29.27;;;24.30;;
60076;SDS011;45950;45.208;20.374;2022-08-21T02:49:15;35.90;;;29.55;;
60076;SDS011;45950;45.208;20.374;2022-08-21T02:51:42;25.33;;;20.90;;
60076;SDS011;45950;45.208;20.374;2022-08-21T02:54:08;27.30;;;19.33;;
60076;SDS011;45950;45.208;20.374;2022-08-21T02:56:35;22.15;;;16.08;;
60076;SDS011;45950;45.208;20.374;2022-08-21T02:59:02;26.95;;;22.02;;
60076;SDS011;45950;45.208;20.374;2022-08-21T03:01:29;19.23;;;16.60;;
60076;SDS011;45950;45.208;20.374;2022-08-21T03:03:57;20.00;;;13.80;;
60076;SDS011;45950;45.208;20.374;2022-08-21T03:06:23;21.85;;;19.50;;
60076;SDS011;45950;45.208;20.374;2022-08-21T03:08:50;22.58;;;17.85;;
60076;SDS011;45950;45.208;20.374;2022-08-21T03:11:17;25.17;;;19.08;;
60076;SDS011;45950;45.208;20.374;2022-08-21T03:13:44;24.08;;;19.70;;
60076;SDS011;45950;45.208;20.374;2022-08-21T03:16:10;25.33;;;19.00;;
60076;SDS011;45950;45.208;20.374;2022-08-21T03:18:37;20.92;;;16.13;;
60076;SDS011;45950;45.208;20.374;2022-08-21T03:21:05;14.05;;;10.02;;
60076;SDS011;45950;45.208;20.374;2022-08-21T03:23:32;12.45;;;8.60;;
60076;SDS011;45950;45.208;20.374;2022-08-21T03:25:59;9.00;;;7.50;;
60076;SDS011;45950;45.208;20.374;2022-08-21T03:28:26;12.80;;;8.65;;
60076;SDS011;45950;45.208;20.374;2022-08-21T03:30:52;9.80;;;5.88;;
60076;SDS011;45950;45.208;20.374;2022-08-21T03:33:19;9.35;;;5.05;;
60076;SDS011;45950;45.208;20.374;2022-08-21T03:35:47;9.18;;;6.57;;
60076;SDS011;45950;45.208;20.374;2022-08-21T03:38:16;7.40;;;6.57;;
60076;SDS011;45950;45.208;20.374;2022-08-21T03:40:44;7.97;;;5.72;;
60076;SDS011;45950;45.208;20.374;2022-08-21T03:43:11;11.63;;;4.88;;
60076;SDS011;45950;45.208;20.374;2022-08-21T03:45:38;7.22;;;4.55;;
60076;SDS011;45950;45.208;20.374;2022-08-21T03:48:05;13.02;;;5.32;;
60076;SDS011;45950;45.208;20.374;2022-08-21T03:50:33;7.07;;;4.47;;
60076;SDS011;45950;45.208;20.374;2022-08-21T03:53:00;10.15;;;5.65;;
60076;SDS011;45950;45.208;20.374;2022-08-21T03:55:28;7.95;;;5.05;;
60076;SDS011;45950;45.208;20.374;2022-08-21T03:57:55;10.80;;;8.10;;
60076;SDS011;45950;45.208;20.374;2022-08-21T04:00:22;8.95;;;7.05;;
60076;SDS011;45950;45.208;20.374;2022-08-21T04:02:49;9.48;;;7.70;;
60076;SDS011;45950;45.208;20.374;2022-08-21T04:05:16;11.05;;;8.00;;
60076;SDS011;45950;45.208;20.374;2022-08-21T04:07:52;9.60;;;7.25;;
60076;SDS011;45950;45.208;20.374;2022-08-21T04:10:19;12.70;;;8.63;;
60076;SDS011;45950;45.208;20.374;2022-08-21T04:12:47;9.68;;;6.38;;
60076;SDS011;45950;45.208;20.374;2022-08-21T04:15:14;11.02;;;7.03;;
60076;SDS011;45950;45.208;20.374;2022-08-21T04:17:40;8.35;;;5.80;;
60076;SDS011;45950;45.208;20.374;2022-08-21T04:20:07;8.57;;;5.95;;
60076;SDS011;45950;45.208;20.374;2022-08-21T04:22:34;13.75;;;8.20;;
60076;SDS011;45950;45.208;20.374;2022-08-21T04:25:01;12.57;;;8.23;;
60076;SDS011;45950;45.208;20.374;2022-08-21T04:27:28;6.55;;;5.57;;
60076;SDS011;45950;45.208;20.374;2022-08-21T04:29:56;7.60;;;5.13;;
60076;SDS011;45950;45.208;20.374;2022-08-21T04:32:23;8.45;;;6.15;;
60076;SDS011;45950;45.208;20.374;2022-08-21T04:34:49;6.88;;;4.93;;
60076;SDS011;45950;45.208;20.374;2022-08-21T04:37:16;9.65;;;4.72;;
60076;SDS011;45950;45.208;20.374;2022-08-21T04:39:43;6.95;;;4.40;;
60076;SDS011;45950;45.208;20.374;2022-08-21T04:42:10;5.47;;;3.90;;
60076;SDS011;45950;45.208;20.374;2022-08-21T04:44:36;4.15;;;3.22;;
60076;SDS011;45950;45.208;20.374;2022-08-21T04:47:04;7.47;;;4.32;;
60076;SDS011;45950;45.208;20.374;2022-08-21T04:49:32;5.43;;;2.80;;
60076;SDS011;45950;45.208;20.374;2022-08-21T04:51:58;3.85;;;2.97;;
60076;SDS011;45950;45.208;20.374;2022-08-21T04:54:25;4.53;;;3.25;;
60076;SDS011;45950;45.208;20.374;2022-08-21T04:56:53;6.22;;;3.45;;
60076;SDS011;45950;45.208;20.374;2022-08-21T04:59:22;3.80;;;3.00;;
60076;SDS011;45950;45.208;20.374;2022-08-21T05:01:49;4.78;;;2.90;;
60076;SDS011;45950;45.208;20.374;2022-08-21T05:04:21;6.53;;;3.72;;
60076;SDS011;45950;45.208;20.374;2022-08-21T05:06:49;4.80;;;3.25;;
60076;SDS011;45950;45.208;20.374;2022-08-21T05:09:17;5.45;;;3.08;;
60076;SDS011;45950;45.208;20.374;2022-08-21T05:11:44;5.30;;;3.35;;
60076;SDS011;45950;45.208;20.374;2022-08-21T05:14:11;5.40;;;3.92;;
60076;SDS011;45950;45.208;20.374;2022-08-21T05:16:38;4.70;;;3.88;;
60076;SDS011;45950;45.208;20.374;2022-08-21T05:19:06;7.05;;;3.75;;
60076;SDS011;45950;45.208;20.374;2022-08-21T05:21:35;5.25;;;3.72;;
60076;SDS011;45950;45.208;20.374;2022-08-21T05:24:02;5.35;;;3.17;;
60076;SDS011;45950;45.208;20.374;2022-08-21T05:26:29;5.38;;;4.15;;
60076;SDS011;45950;45.208;20.374;2022-08-21T05:28:56;4.35;;;2.88;;
60076;SDS011;45950;45.208;20.374;2022-08-21T05:31:22;5.20;;;3.33;;
60076;SDS011;45950;45.208;20.374;2022-08-21T05:33:49;5.22;;;2.97;;
60076;SDS011;45950;45.208;20.374;2022-08-21T05:36:16;3.78;;;2.70;;
60076;SDS011;45950;45.208;20.374;2022-08-21T05:38:44;6.20;;;4.60;;
60076;SDS011;45950;45.208;20.374;2022-08-21T05:41:11;6.95;;;4.13;;
60076;SDS011;45950;45.208;20.374;2022-08-21T05:43:38;8.82;;;4.90;;
60076;SDS011;45950;45.208;20.374;2022-08-21T05:46:06;7.18;;;4.50;;
60076;SDS011;45950;45.208;20.374;2022-08-21T05:48:33;4.88;;;3.38;;
60076;SDS011;45950;45.208;20.374;2022-08-21T05:51:03;7.60;;;3.92;;
60076;SDS011;45950;45.208;20.374;2022-08-21T05:53:30;6.18;;;4.50;;
60076;SDS011;45950;45.208;20.374;2022-08-21T05:55:58;9.15;;;4.63;;
60076;SDS011;45950;45.208;20.374;2022-08-21T05:58:25;8.85;;;5.00;;
60076;SDS011;45950;45.208;20.374;2022-08-21T06:00:52;4.70;;;3.03;;
60076;SDS011;45950;45.208;20.374;2022-08-21T06:03:20;4.80;;;3.42;;
60076;SDS011;45950;45.208;20.374;2022-08-21T06:05:46;5.60;;;3.42;;
60076;SDS011;45950;45.208;20.374;2022-08-21T06:08:13;6.45;;;4.57;;
60076;SDS011;45950;45.208;20.374;2022-08-21T06:10:41;8.00;;;5.70;;
60076;SDS011;45950;45.208;20.374;2022-08-21T06:13:09;5.88;;;5.18;;
60076;SDS011;45950;45.208;20.374;2022-08-21T06:15:36;7.63;;;5.78;;
60076;SDS011;45950;45.208;20.374;2022-08-21T06:18:03;8.48;;;4.60;;
60076;SDS011;45950;45.208;20.374;2022-08-21T06:20:30;7.38;;;5.03;;
60076;SDS011;45950;45.208;20.374;2022-08-21T06:22:57;7.15;;;5.20;;
60076;SDS011;45950;45.208;20.374;2022-08-21T06:25:24;5.90;;;4.72;;
60076;SDS011;45950;45.208;20.374;2022-08-21T06:27:51;12.57;;;7.85;;
60076;SDS011;45950;45.208;20.374;2022-08-21T06:30:19;9.50;;;6.60;;
60076;SDS011;45950;45.208;20.374;2022-08-21T06:32:46;10.02;;;6.93;;
60076;SDS011;45950;45.208;20.374;2022-08-21T06:35:13;7.97;;;6.45;;
60076;SDS011;45950;45.208;20.374;2022-08-21T06:37:39;10.35;;;8.15;;
60076;SDS011;45950;45.208;20.374;2022-08-21T06:40:07;9.88;;;7.80;;
60076;SDS011;45950;45.208;20.374;2022-08-21T06:42:33;8.25;;;6.85;;
60076;SDS011;45950;45.208;20.374;2022-08-21T06:45:00;9.32;;;7.28;;
60076;SDS011;45950;45.208;20.374;2022-08-21T06:47:28;7.05;;;5.85;;
60076;SDS011;45950;45.208;20.374;2022-08-21T06:49:55;6.85;;;6.10;;
60076;SDS011;45950;45.208;20.374;2022-08-21T06:52:22;11.40;;;7.22;;
60076;SDS011;45950;45.208;20.374;2022-08-21T06:54:48;6.75;;;4.90;;
60076;SDS011;45950;45.208;20.374;2022-08-21T06:57:15;8.52;;;4.63;;
60076;SDS011;45950;45.208;20.374;2022-08-21T06:59:42;9.13;;;6.50;;
60076;SDS011;45950;45.208;20.374;2022-08-21T07:02:08;10.75;;;7.28;;
60076;SDS011;45950;45.208;20.374;2022-08-21T07:04:37;10.73;;;8.13;;
60076;SDS011;45950;45.208;20.374;2022-08-21T07:07:03;10.38;;;7.20;;
60076;SDS011;45950;45.208;20.374;2022-08-21T07:09:30;10.35;;;7.35;;
60076;SDS011;45950;45.208;20.374;2022-08-21T07:11:58;13.10;;;8.48;;
60076;SDS011;45950;45.208;20.374;2022-08-21T07:14:24;10.52;;;7.85;;
60076;SDS011;45950;45.208;20.374;2022-08-21T07:16:51;8.20;;;6.35;;
60076;SDS011;45950;45.208;20.374;2022-08-21T07:19:18;9.57;;;6.55;;
60076;SDS011;45950;45.208;20.374;2022-08-21T07:21:46;9.68;;;6.43;;
60076;SDS011;45950;45.208;20.374;2022-08-21T07:24:13;12.05;;;9.73;;
60076;SDS011;45950;45.208;20.374;2022-08-21T07:26:40;14.07;;;10.32;;
60076;SDS011;45950;45.208;20.374;2022-08-21T07:29:06;13.38;;;10.32;;
60076;SDS011;45950;45.208;20.374;2022-08-21T07:31:33;13.85;;;10.65;;
60076;SDS011;45950;45.208;20.374;2022-08-21T07:34:00;16.33;;;11.70;;
60076;SDS011;45950;45.208;20.374;2022-08-21T07:36:27;15.57;;;12.15;;
60076;SDS011;45950;45.208;20.374;2022-08-21T07:38:55;16.88;;;14.10;;
60076;SDS011;45950;45.208;20.374;2022-08-21T07:41:22;10.23;;;8.30;;
60076;SDS011;45950;45.208;20.374;2022-08-21T07:43:49;9.35;;;6.90;;
60076;SDS011;45950;45.208;20.374;2022-08-21T07:46:16;13.10;;;7.80;;
60076;SDS011;45950;45.208;20.374;2022-08-21T07:48:43;11.00;;;7.65;;
60076;SDS011;45950;45.208;20.374;2022-08-21T07:51:11;14.18;;;9.55;;
60076;SDS011;45950;45.208;20.374;2022-08-21T07:53:38;11.73;;;7.63;;
60076;SDS011;45950;45.208;20.374;2022-08-21T07:56:07;12.80;;;10.50;;
60076;SDS011;45950;45.208;20.374;2022-08-21T07:58:36;14.30;;;12.13;;
60076;SDS011;45950;45.208;20.374;2022-08-21T08:01:02;10.30;;;7.68;;
60076;SDS011;45950;45.208;20.374;2022-08-21T08:03:29;11.57;;;7.47;;
60076;SDS011;45950;45.208;20.374;2022-08-21T08:05:56;13.40;;;9.27;;
60076;SDS011;45950;45.208;20.374;2022-08-21T08:08:23;9.02;;;6.18;;
60076;SDS011;45950;45.208;20.374;2022-08-21T08:10:50;9.50;;;5.82;;
60076;SDS011;45950;45.208;20.374;2022-08-21T08:13:18;10.55;;;6.70;;
60076;SDS011;45950;45.208;20.374;2022-08-21T08:15:45;11.90;;;9.25;;
60076;SDS011;45950;45.208;20.374;2022-08-21T08:18:11;12.88;;;9.10;;
60076;SDS011;45950;45.208;20.374;2022-08-21T08:20:40;13.45;;;7.93;;
60076;SDS011;45950;45.208;20.374;2022-08-21T08:23:07;11.10;;;7.40;;
60076;SDS011;45950;45.208;20.374;2022-08-21T08:25:33;9.27;;;6.57;;
60076;SDS011;45950;45.208;20.374;2022-08-21T08:28:00;10.35;;;7.22;;
60076;SDS011;45950;45.208;20.374;2022-08-21T08:30:28;9.15;;;6.55;;
60076;SDS011;45950;45.208;20.374;2022-08-21T08:32:55;13.30;;;8.32;;
60076;SDS011;45950;45.208;20.374;2022-08-21T08:35:22;36.65;;;28.05;;
60076;SDS011;45950;45.208;20.374;2022-08-21T08:37:50;56.75;;;42.08;;
60076;SDS011;45950;45.208;20.374;2022-08-21T08:40:18;22.02;;;16.45;;
60076;SDS011;45950;45.208;20.374;2022-08-21T08:42:47;12.05;;;7.70;;
60076;SDS011;45950;45.208;20.374;2022-08-21T08:45:16;10.35;;;7.30;;
60076;SDS011;45950;45.208;20.374;2022-08-21T08:47:45;11.82;;;7.00;;
60076;SDS011;45950;45.208;20.374;2022-08-21T08:50:15;12.18;;;9.20;;
60076;SDS011;45950;45.208;20.374;2022-08-21T08:52:45;16.38;;;12.07;;
60076;SDS011;45950;45.208;20.374;2022-08-21T08:55:14;10.73;;;7.18;;
60076;SDS011;45950;45.208;20.374;2022-08-21T08:57:42;8.63;;;6.32;;
60076;SDS011;45950;45.208;20.374;2022-08-21T09:00:11;11.95;;;5.82;;
60076;SDS011;45950;45.208;20.374;2022-08-21T09:02:39;8.82;;;6.03;;
60076;SDS011;45950;45.208;20.374;2022-08-21T09:05:08;12.15;;;6.13;;
60076;SDS011;45950;45.208;20.374;2022-08-21T09:07:39;11.25;;;6.07;;
60076;SDS011;45950;45.208;20.374;2022-08-21T09:10:13;7.88;;;5.03;;
60076;SDS011;45950;45.208;20.374;2022-08-21T09:12:48;12.80;;;9.32;;
60076;SDS011;45950;45.208;20.374;2022-08-21T09:17:49;29.95;;;19.45;;
60076;SDS011;45950;45.208;20.374;2022-08-21T09:20:22;8.90;;;6.18;;
60076;SDS011;45950;45.208;20.374;2022-08-21T09:22:53;10.52;;;6.00;;
60076;SDS011;45950;45.208;20.374;2022-08-21T09:25:24;12.82;;;6.55;;
60076;SDS011;45950;45.208;20.374;2022-08-21T09:27:51;9.25;;;6.63;;
60076;SDS011;45950;45.208;20.374;2022-08-21T09:30:18;7.70;;;5.40;;
60076;SDS011;45950;45.208;20.374;2022-08-21T09:32:47;10.02;;;6.22;;
60076;SDS011;45950;45.208;20.374;2022-08-21T09:35:15;8.68;;;6.75;;
60076;SDS011;45950;45.208;20.374;2022-08-21T09:37:48;8.05;;;5.90;;
60076;SDS011;45950;45.208;20.374;2022-08-21T09:40:27;8.73;;;5.75;;
60076;SDS011;45950;45.208;20.374;2022-08-21T09:42:56;7.45;;;5.35;;
60076;SDS011;45950;45.208;20.374;2022-08-21T09:45:23;8.98;;;7.03;;
60076;SDS011;45950;45.208;20.374;2022-08-21T09:47:50;5.38;;;3.83;;
60076;SDS011;45950;45.208;20.374;2022-08-21T09:50:17;5.82;;;3.60;;
60076;SDS011;45950;45.208;20.374;2022-08-21T09:52:45;5.63;;;3.00;;
60076;SDS011;45950;45.208;20.374;2022-08-21T09:55:18;5.55;;;2.90;;
60076;SDS011;45950;45.208;20.374;2022-08-21T09:57:59;5.28;;;3.42;;
60076;SDS011;45950;45.208;20.374;2022-08-21T10:00:27;4.82;;;3.42;;
60076;SDS011;45950;45.208;20.374;2022-08-21T10:02:56;4.35;;;3.33;;
60076;SDS011;45950;45.208;20.374;2022-08-21T10:05:33;4.63;;;3.20;;
60076;SDS011;45950;45.208;20.374;2022-08-21T10:08:00;4.72;;;3.60;;
60076;SDS011;45950;45.208;20.374;2022-08-21T10:10:28;5.05;;;3.83;;
60076;SDS011;45950;45.208;20.374;2022-08-21T10:12:57;4.35;;;3.95;;
60076;SDS011;45950;45.208;20.374;2022-08-21T10:15:28;5.97;;;4.32;;
60076;SDS011;45950;45.208;20.374;2022-08-21T10:18:06;4.50;;;2.72;;
60076;SDS011;45950;45.208;20.374;2022-08-21T10:20:36;4.38;;;3.50;;
60076;SDS011;45950;45.208;20.374;2022-08-21T10:23:09;3.65;;;3.00;;
60076;SDS011;45950;45.208;20.374;2022-08-21T10:25:43;5.07;;;3.75;;
60076;SDS011;45950;45.208;20.374;2022-08-21T10:28:24;4.80;;;3.70;;
60076;SDS011;45950;45.208;20.374;2022-08-21T10:30:56;4.50;;;3.20;;
60076;SDS011;45950;45.208;20.374;2022-08-21T10:33:27;3.90;;;3.40;;
60076;SDS011;45950;45.208;20.374;2022-08-21T10:35:59;5.10;;;3.50;;
60076;SDS011;45950;45.208;20.374;2022-08-21T10:38:52;5.82;;;3.17;;
60076;SDS011;45950;45.208;20.374;2022-08-21T10:41:29;4.28;;;3.20;;
60076;SDS011;45950;45.208;20.374;2022-08-21T10:44:00;5.75;;;3.45;;
60076;SDS011;45950;45.208;20.374;2022-08-21T10:46:33;5.40;;;3.60;;
60076;SDS011;45950;45.208;20.374;2022-08-21T10:49:05;3.65;;;3.05;;
60076;SDS011;45950;45.208;20.374;2022-08-21T10:51:46;5.30;;;4.53;;
60076;SDS011;45950;45.208;20.374;2022-08-21T10:54:16;4.90;;;4.03;;
60076;SDS011;45950;45.208;20.374;2022-08-21T10:56:46;4.35;;;3.30;;
60076;SDS011;45950;45.208;20.374;2022-08-21T10:59:27;4.43;;;3.40;;
60076;SDS011;45950;45.208;20.374;2022-08-21T11:01:59;3.53;;;2.63;;
60076;SDS011;45950;45.208;20.374;2022-08-21T11:04:28;4.55;;;2.80;;
60076;SDS011;45950;45.208;20.374;2022-08-21T11:06:58;5.43;;;4.68;;
60076;SDS011;45950;45.208;20.374;2022-08-21T11:09:26;7.35;;;5.13;;
60076;SDS011;45950;45.208;20.374;2022-08-21T11:11:56;4.55;;;3.88;;
60076;SDS011;45950;45.208;20.374;2022-08-21T11:14:29;6.53;;;4.70;;
60076;SDS011;45950;45.208;20.374;2022-08-21T11:17:11;6.45;;;4.60;;
60076;SDS011;45950;45.208;20.374;2022-08-21T11:19:40;4.65;;;3.75;;
60076;SDS011;45950;45.208;20.374;2022-08-21T11:22:15;6.20;;;3.97;;
60076;SDS011;45950;45.208;20.374;2022-08-21T11:24:49;6.47;;;3.85;;
60076;SDS011;45950;45.208;20.374;2022-08-21T11:27:36;7.05;;;5.90;;
60076;SDS011;45950;45.208;20.374;2022-08-21T11:30:08;7.20;;;4.95;;
60076;SDS011;45950;45.208;20.374;2022-08-21T11:32:58;5.37;;;4.07;;
60076;SDS011;45950;45.208;20.374;2022-08-21T11:35:30;8.02;;;6.60;;
60076;SDS011;45950;45.208;20.374;2022-08-21T11:38:01;6.80;;;5.68;;
60076;SDS011;45950;45.208;20.374;2022-08-21T11:40:34;5.53;;;4.93;;
60076;SDS011;45950;45.208;20.374;2022-08-21T11:43:07;6.35;;;4.10;;
60076;SDS011;45950;45.208;20.374;2022-08-21T11:45:39;7.45;;;6.15;;
60076;SDS011;45950;45.208;20.374;2022-08-21T11:48:12;7.82;;;6.90;;
60076;SDS011;45950;45.208;20.374;2022-08-21T11:50:42;8.63;;;7.60;;
60076;SDS011;45950;45.208;20.374;2022-08-21T11:53:11;8.02;;;7.22;;
60076;SDS011;45950;45.208;20.374;2022-08-21T11:55:40;9.80;;;8.32;;
60076;SDS011;45950;45.208;20.374;2022-08-21T11:58:10;10.25;;;9.25;;
60076;SDS011;45950;45.208;20.374;2022-08-21T12:00:39;9.95;;;8.95;;
60076;SDS011;45950;45.208;20.374;2022-08-21T12:03:07;10.05;;;9.05;;
60076;SDS011;45950;45.208;20.374;2022-08-21T12:05:36;9.73;;;7.85;;
60076;SDS011;45950;45.208;20.374;2022-08-21T12:08:06;9.45;;;8.32;;
60076;SDS011;45950;45.208;20.374;2022-08-21T12:10:34;10.45;;;9.40;;
60076;SDS011;45950;45.208;20.374;2022-08-21T12:13:10;11.60;;;10.40;;
60076;SDS011;45950;45.208;20.374;2022-08-21T12:15:39;10.93;;;9.25;;
60076;SDS011;45950;45.208;20.374;2022-08-21T12:18:06;11.35;;;9.07;;
60076;SDS011;45950;45.208;20.374;2022-08-21T12:20:37;13.70;;;11.07;;
60076;SDS011;45950;45.208;20.374;2022-08-21T12:23:15;12.60;;;11.18;;
60076;SDS011;45950;45.208;20.374;2022-08-21T12:25:59;9.38;;;8.27;;
60076;SDS011;45950;45.208;20.374;2022-08-21T12:28:31;11.55;;;9.00;;
60076;SDS011;45950;45.208;20.374;2022-08-21T12:31:16;12.20;;;10.80;;
60076;SDS011;45950;45.208;20.374;2022-08-21T12:33:47;11.05;;;9.50;;
60076;SDS011;45950;45.208;20.374;2022-08-21T12:36:17;11.23;;;9.05;;
60076;SDS011;45950;45.208;20.374;2022-08-21T12:38:51;12.07;;;10.60;;
60076;SDS011;45950;45.208;20.374;2022-08-21T12:41:26;12.05;;;10.77;;
60076;SDS011;45950;45.208;20.374;2022-08-21T12:46:59;13.30;;;11.88;;
60076;SDS011;45950;45.208;20.374;2022-08-21T12:49:29;14.48;;;12.35;;
60076;SDS011;45950;45.208;20.374;2022-08-21T12:52:00;12.32;;;11.02;;
60076;SDS011;45950;45.208;20.374;2022-08-21T12:54:28;13.40;;;11.73;;
60076;SDS011;45950;45.208;20.374;2022-08-21T12:56:56;13.85;;;12.40;;
60076;SDS011;45950;45.208;20.374;2022-08-21T12:59:23;16.60;;;12.52;;
60076;SDS011;45950;45.208;20.374;2022-08-21T13:01:50;14.43;;;11.95;;
60076;SDS011;45950;45.208;20.374;2022-08-21T13:04:33;13.63;;;10.85;;
60076;SDS011;45950;45.208;20.374;2022-08-21T13:07:49;16.30;;;14.32;;
60076;SDS011;45950;45.208;20.374;2022-08-21T13:13:17;13.70;;;12.20;;
60076;SDS011;45950;45.208;20.374;2022-08-21T13:15:44;13.73;;;12.27;;
60076;SDS011;45950;45.208;20.374;2022-08-21T13:18:19;15.77;;;13.20;;
60076;SDS011;45950;45.208;20.374;2022-08-21T13:20:47;17.83;;;15.93;;
60076;SDS011;45950;45.208;20.374;2022-08-21T13:23:18;15.95;;;14.25;;
60076;SDS011;45950;45.208;20.374;2022-08-21T13:25:45;17.45;;;15.65;;
60076;SDS011;45950;45.208;20.374;2022-08-21T13:28:12;17.33;;;14.15;;
60076;SDS011;45950;45.208;20.374;2022-08-21T13:30:40;17.73;;;15.80;;
60076;SDS011;45950;45.208;20.374;2022-08-21T13:33:09;18.48;;;15.75;;
60076;SDS011;45950;45.208;20.374;2022-08-21T13:35:48;22.25;;;16.88;;
60076;SDS011;45950;45.208;20.374;2022-08-21T13:38:15;19.05;;;16.92;;
60076;SDS011;45950;45.208;20.374;2022-08-21T13:40:44;20.35;;;16.90;;
60076;SDS011;45950;45.208;20.374;2022-08-21T13:43:13;17.33;;;15.52;;
60076;SDS011;45950;45.208;20.374;2022-08-21T13:45:42;19.77;;;16.65;;
60076;SDS011;45950;45.208;20.374;2022-08-21T13:48:13;17.08;;;14.73;;
60076;SDS011;45950;45.208;20.374;2022-08-21T13:50:40;17.23;;;15.38;;
60076;SDS011;45950;45.208;20.374;2022-08-21T13:53:20;20.70;;;18.58;;
60076;SDS011;45950;45.208;20.374;2022-08-21T13:55:48;20.35;;;17.40;;
60076;SDS011;45950;45.208;20.374;2022-08-21T13:58:23;17.08;;;15.38;;
60076;SDS011;45950;45.208;20.374;2022-08-21T14:00:50;34.75;;;31.15;;
60076;SDS011;45950;45.208;20.374;2022-08-21T14:03:23;89.57;;;70.57;;
60076;SDS011;45950;45.208;20.374;2022-08-21T14:05:52;18.98;;;17.08;;
60076;SDS011;45950;45.208;20.374;2022-08-21T14:08:23;18.63;;;16.17;;
60076;SDS011;45950;45.208;20.374;2022-08-21T14:10:52;16.97;;;15.23;;
60076;SDS011;45950;45.208;20.374;2022-08-21T14:13:24;16.80;;;15.00;;
60076;SDS011;45950;45.208;20.374;2022-08-21T14:15:55;13.65;;;11.30;;
60076;SDS011;45950;45.208;20.374;2022-08-21T14:18:23;18.23;;;14.85;;
60076;SDS011;45950;45.208;20.374;2022-08-21T14:20:51;11.00;;;9.75;;
60076;SDS011;45950;45.208;20.374;2022-08-21T14:26:20;13.13;;;11.07;;
60076;SDS011;45950;45.208;20.374;2022-08-21T14:28:50;14.13;;;12.63;;
60076;SDS011;45950;45.208;20.374;2022-08-21T14:31:18;15.00;;;13.40;;
60076;SDS011;45950;45.208;20.374;2022-08-21T14:33:48;10.57;;;9.48;;
60076;SDS011;45950;45.208;20.374;2022-08-21T14:36:15;14.20;;;12.75;;
60076;SDS011;45950;45.208;20.374;2022-08-21T14:38:41;12.48;;;10.50;;
60076;SDS011;45950;45.208;20.374;2022-08-21T14:41:13;13.13;;;11.80;;
60076;SDS011;45950;45.208;20.374;2022-08-21T14:43:43;10.70;;;9.60;;